Time;durP1;ratioP1;P1;durP2;ratioP2;P2;SDS_P1;SDS_P2;PMS_P1;PMS_P2;Temp;Humidity;BMP_temperature;BMP_pressure;BME280_temperature;BME280_humidity;BME280_pressure;Samples;Min_cycle;Max_cycle;Signal;HPM_P1;HPM_P2
2022/01/31 00:02:26;;;;;;;2.50;0.70;;;;;;;1.21;79.75;98854.91;4165727;28;20256;-72
2022/01/31 00:04:53;;;;;;;1.53;0.60;;;;;;;1.23;79.65;98883.63;4176261;28;20252;-70
2022/01/31 00:07:19;;;;;;;1.20;0.40;;;;;;;1.22;80.17;98871.50;4173515;28;20246;-70
2022/01/31 00:09:46;;;;;;;1.93;0.60;;;;;;;1.15;79.42;98865.91;4183343;28;20295;-70
2022/01/31 00:12:15;;;;;;;2.37;0.53;;;;;;;1.14;79.49;98873.88;4174949;28;20234;-70
2022/01/31 00:14:48;;;;;;;3.80;0.67;;;;;;;1.11;80.40;98874.97;4182938;28;20238;-70
2022/01/31 00:17:15;;;;;;;4.53;0.80;;;;;;;1.07;80.37;98881.41;4167705;28;20944;-70
2022/01/31 00:19:43;;;;;;;1.97;0.60;;;;;;;1.09;80.25;98881.28;4181479;28;21161;-70
2022/01/31 00:22:11;;;;;;;1.37;0.60;;;;;;;1.09;81.16;98878.66;4177842;28;21612;-72
2022/01/31 00:24:40;;;;;;;1.83;0.50;;;;;;;1.09;80.82;98887.34;4177786;28;20626;-69
2022/01/31 00:27:08;;;;;;;1.90;0.60;;;;;;;1.09;79.93;98887.34;4183718;28;20316;-72
2022/01/31 00:29:35;;;;;;;2.33;0.50;;;;;;;1.15;79.17;98875.56;4163285;28;20228;-72
2022/01/31 00:32:02;;;;;;;2.03;0.50;;;;;;;1.14;79.21;98872.09;4174379;28;22680;-72
2022/01/31 00:34:28;;;;;;;2.80;0.80;;;;;;;1.19;78.73;98883.03;4173536;28;22610;-71
2022/01/31 00:36:55;;;;;;;2.37;0.40;;;;;;;1.08;79.60;98879.59;4166382;28;20254;-73
2022/01/31 00:39:22;;;;;;;3.20;0.60;;;;;;;1.10;79.23;98882.94;4172647;28;20649;-71
2022/01/31 00:41:48;;;;;;;3.43;0.70;;;;;;;1.13;79.21;98880.91;4156147;28;20230;-70
2022/01/31 00:44:23;;;;;;;2.60;0.80;;;;;;;1.12;79.86;98889.72;4178994;28;21178;-70
2022/01/31 00:46:55;;;;;;;3.60;0.77;;;;;;;1.10;80.21;98875.06;4183363;28;21208;-72
2022/01/31 00:51:58;;;;;;;3.57;0.70;;;;;;;1.17;79.30;98890.19;4181960;28;20235;-70
2022/01/31 00:54:25;;;;;;;3.60;0.77;;;;;;;1.16;79.78;98906.03;4176029;28;23096;-70
2022/01/31 00:56:52;;;;;;;2.43;0.63;;;;;;;1.24;79.40;98906.22;4161852;28;20281;-70
2022/01/31 00:59:18;;;;;;;2.80;0.73;;;;;;;1.30;78.51;98889.19;4190975;28;22779;-69
2022/01/31 01:01:45;;;;;;;2.77;0.70;;;;;;;1.33;78.14;98905.50;4174754;28;20234;-71
2022/01/31 01:04:12;;;;;;;3.77;1.00;;;;;;;1.26;78.42;98894.69;4175808;28;20229;-69
2022/01/31 01:06:38;;;;;;;1.83;0.70;;;;;;;1.26;78.06;98876.34;4176985;28;22376;-70
2022/01/31 01:09:05;;;;;;;4.67;0.80;;;;;;;1.29;77.41;98918.97;4174073;28;22053;-69
2022/01/31 01:11:31;;;;;;;2.50;0.80;;;;;;;1.25;77.56;98911.38;4172414;28;21034;-69
2022/01/31 01:13:58;;;;;;;1.43;0.97;;;;;;;1.21;77.17;98902.06;4159686;28;20334;-73
2022/01/31 01:16:25;;;;;;;4.37;0.80;;;;;;;1.17;76.58;98926.03;4172972;28;20232;-68
2022/01/31 01:18:51;;;;;;;4.00;0.90;;;;;;;1.09;76.25;98923.19;4190483;28;20310;-75
2022/01/31 01:21:18;;;;;;;2.90;0.87;;;;;;;1.04;76.91;98934.03;4172274;28;20939;-70
2022/01/31 01:23:44;;;;;;;3.80;0.93;;;;;;;1.06;75.90;98937.38;4164648;28;22148;-69
2022/01/31 01:26:11;;;;;;;4.37;0.70;;;;;;;0.95;76.68;98947.84;4177439;28;22046;-72
2022/01/31 01:28:38;;;;;;;5.33;1.17;;;;;;;0.96;75.76;98941.66;4173183;28;20233;-70
2022/01/31 01:31:04;;;;;;;3.17;0.70;;;;;;;0.92;75.09;98935.84;4176406;28;20242;-73
2022/01/31 01:33:37;;;;;;;1.73;0.60;;;;;;;0.89;75.22;98940.47;4151104;28;21265;-73
2022/01/31 01:36:06;;;;;;;5.13;0.80;;;;;;;0.91;74.85;98938.56;4171530;28;20364;-73
2022/01/31 01:38:33;;;;;;;3.63;0.70;;;;;;;0.89;74.57;98937.84;4166066;28;21595;-72
2022/01/31 01:41:00;;;;;;;6.23;0.63;;;;;;;0.88;74.28;98946.69;4156725;28;20239;-73
2022/01/31 01:43:29;;;;;;;2.50;0.70;;;;;;;0.80;74.09;98939.44;4156267;28;23086;-72
2022/01/31 01:45:58;;;;;;;2.53;0.80;;;;;;;0.81;73.95;98952.38;4179215;28;22161;-72
2022/01/31 01:48:25;;;;;;;4.57;0.77;;;;;;;0.70;73.70;98934.06;4169586;28;20237;-73
2022/01/31 01:50:51;;;;;;;4.30;0.77;;;;;;;0.72;73.90;98947.03;4163626;28;20274;-73
2022/01/31 01:53:18;;;;;;;5.47;0.80;;;;;;;0.76;73.45;98948.47;4166218;28;21371;-72
2022/01/31 01:55:46;;;;;;;3.57;0.73;;;;;;;0.74;72.56;98940.72;4164949;28;20245;-70
2022/01/31 01:58:16;;;;;;;2.43;0.40;;;;;;;0.73;72.55;98938.25;4172556;28;21795;-74
2022/01/31 02:00:51;;;;;;;2.27;0.73;;;;;;;0.73;73.09;98939.06;4168772;28;20388;-74
2022/01/31 02:03:18;;;;;;;3.53;0.70;;;;;;;0.77;72.97;98935.28;4171649;28;20244;-72
2022/01/31 02:05:46;;;;;;;6.73;0.90;;;;;;;0.73;72.67;98928.59;4163478;28;20238;-72
2022/01/31 02:08:14;;;;;;;3.93;0.70;;;;;;;0.78;72.65;98921.22;4173628;28;20241;-74
2022/01/31 02:10:41;;;;;;;1.93;0.50;;;;;;;0.81;72.55;98925.38;4172085;28;20360;-72
2022/01/31 02:13:08;;;;;;;1.87;0.60;;;;;;;0.85;72.87;98926.81;4165838;28;20258;-71
2022/01/31 02:15:36;;;;;;;3.30;0.77;;;;;;;0.86;72.99;98922.41;4165410;28;20314;-69
2022/01/31 02:18:03;;;;;;;3.93;0.70;;;;;;;0.98;72.75;98924.03;4174872;28;20229;-70
2022/01/31 02:20:30;;;;;;;1.80;0.80;;;;;;;1.02;73.15;98928.09;4176799;28;20244;-72
2022/01/31 02:22:57;;;;;;;3.23;0.87;;;;;;;0.92;74.17;98921.91;4174946;28;20241;-70
2022/01/31 02:25:24;;;;;;;4.10;1.30;;;;;;;1.01;73.94;98923.81;4171141;28;21892;-71
2022/01/31 02:27:50;;;;;;;3.43;0.70;;;;;;;1.10;74.61;98919.59;4163486;28;21070;-71
2022/01/31 02:30:17;;;;;;;3.33;0.90;;;;;;;1.04;75.30;98918.31;4162063;28;22410;-71
2022/01/31 02:32:45;;;;;;;3.37;0.90;;;;;;;0.95;77.05;98916.44;4177223;28;20366;-69
2022/01/31 02:35:12;;;;;;;5.60;1.07;;;;;;;0.91;78.51;98928.09;4160038;28;20249;-74
2022/01/31 02:37:39;;;;;;;6.80;1.13;;;;;;;0.91;79.32;98920.25;4173216;28;21861;-69
2022/01/31 02:40:06;;;;;;;5.50;0.97;;;;;;;0.87;79.84;98908.34;4173459;28;22685;-68
2022/01/31 02:42:32;;;;;;;4.80;1.00;;;;;;;0.84;81.50;98910.28;4179798;28;20238;-72
2022/01/31 02:44:59;;;;;;;4.33;1.00;;;;;;;0.80;82.13;98908.00;4175191;28;20240;-68
2022/01/31 02:47:29;;;;;;;6.67;1.40;;;;;;;0.74;83.69;98904.06;4178064;28;22141;-69
2022/01/31 02:50:00;;;;;;;8.37;1.33;;;;;;;0.78;84.93;98905.50;4173383;28;20281;-70
2022/01/31 02:52:30;;;;;;;6.00;1.80;;;;;;;0.77;85.57;98909.09;4182782;28;21752;-71
2022/01/31 02:54:57;;;;;;;5.73;1.73;;;;;;;0.73;86.43;98905.03;4174589;28;20230;-69
2022/01/31 02:57:24;;;;;;;8.03;1.70;;;;;;;0.69;87.54;98900.97;4175079;28;22070;-71
2022/01/31 02:59:50;;;;;;;10.20;2.03;;;;;;;0.65;87.45;98886.47;4185672;28;20237;-69
2022/01/31 03:02:18;;;;;;;10.00;1.80;;;;;;;0.63;88.25;98888.38;4503198;28;20246;-69
2022/01/31 03:04:44;;;;;;;5.30;1.87;;;;;;;0.66;88.40;98885.53;4316912;28;20241;-69
2022/01/31 03:07:11;;;;;;;10.43;2.27;;;;;;;0.74;86.94;98888.38;4220053;28;20394;-71
2022/01/31 03:09:38;;;;;;;14.97;3.03;;;;;;;0.66;87.34;98885.53;4261780;28;20237;-68
2022/01/31 03:12:05;;;;;;;15.13;2.80;;;;;;;0.70;86.56;98881.69;4739140;28;25410;-69
2022/01/31 03:14:32;;;;;;;11.77;2.20;;;;;;;0.74;85.91;98887.53;4530302;28;20318;-68
2022/01/31 03:16:58;;;;;;;13.67;3.10;;;;;;;0.75;85.43;98889.19;4748155;28;20309;-74
2022/01/31 03:19:25;;;;;;;7.23;2.10;;;;;;;0.84;85.90;98899.78;4284765;28;20427;-71
2022/01/31 03:21:52;;;;;;;9.53;2.13;;;;;;;0.92;85.23;98909.66;4508942;28;20299;-72
2022/01/31 03:24:19;;;;;;;12.07;2.30;;;;;;;0.99;85.25;98916.06;4226843;28;20247;-70
2022/01/31 03:26:46;;;;;;;12.03;2.07;;;;;;;0.96;84.16;98910.22;4206447;28;20585;-70
2022/01/31 03:29:12;;;;;;;12.93;2.37;;;;;;;0.86;83.87;98907.50;4211052;28;20744;-71
2022/01/31 03:31:40;;;;;;;11.13;2.40;;;;;;;0.80;83.72;98908.84;4199417;28;26569;-73
2022/01/31 03:34:07;;;;;;;15.53;2.63;;;;;;;0.72;84.21;98908.59;4206242;28;20510;-71
2022/01/31 03:36:33;;;;;;;13.83;2.27;;;;;;;0.74;84.28;98901.44;4206055;28;22309;-70
2022/01/31 03:39:00;;;;;;;13.97;2.30;;;;;;;0.67;83.91;98902.88;4203370;28;21158;-69
2022/01/31 03:41:27;;;;;;;12.93;2.63;;;;;;;0.60;84.45;98906.94;4202539;28;25698;-68
2022/01/31 03:43:53;;;;;;;13.77;1.80;;;;;;;0.52;85.19;98898.88;4206565;28;20240;-69
2022/01/31 03:46:20;;;;;;;12.10;2.27;;;;;;;0.52;85.26;98901.47;4207613;28;26073;-74
2022/01/31 03:48:48;;;;;;;9.83;1.70;;;;;;;0.51;85.09;98891.94;4219618;28;20451;-70
2022/01/31 03:51:15;;;;;;;12.77;2.03;;;;;;;0.50;85.23;98895.53;4206725;28;25690;-69
2022/01/31 03:53:41;;;;;;;13.40;2.50;;;;;;;0.49;85.34;98909.53;4199698;28;20268;-70
2022/01/31 03:56:08;;;;;;;15.60;2.47;;;;;;;0.47;85.38;98909.69;4202118;28;20746;-74
2022/01/31 03:58:34;;;;;;;19.83;3.53;;;;;;;0.48;85.58;98905.28;4189414;28;20705;-72
2022/01/31 04:01:01;;;;;;;14.30;3.03;;;;;;;0.48;85.85;98913.13;4195521;28;23695;-73
2022/01/31 04:03:28;;;;;;;14.57;3.00;;;;;;;0.49;85.12;98905.19;4202124;28;25567;-70
2022/01/31 04:05:55;;;;;;;19.17;3.10;;;;;;;0.43;85.88;98897.78;4197766;28;20229;-70
2022/01/31 04:08:21;;;;;;;16.90;3.13;;;;;;;0.39;85.97;98901.59;4187566;28;21782;-70
2022/01/31 04:10:48;;;;;;;14.00;2.67;;;;;;;0.36;86.07;98897.41;4165789;28;20234;-72
2022/01/31 04:13:16;;;;;;;16.90;2.83;;;;;;;0.26;86.85;98888.63;4184530;28;20761;-70
2022/01/31 04:15:43;;;;;;;13.27;2.37;;;;;;;0.24;87.00;98900.97;4180145;28;20746;-72
2022/01/31 04:18:10;;;;;;;15.40;2.63;;;;;;;0.28;86.77;98897.19;4169231;28;20232;-70
2022/01/31 04:20:37;;;;;;;18.90;2.80;;;;;;;0.36;85.88;98894.81;4174282;28;20705;-70
2022/01/31 04:23:10;;;;;;;17.97;2.60;;;;;;;0.30;86.43;98895.25;4161332;28;20237;-72
2022/01/31 04:33:20;;;;;;;14.17;2.40;;;;;;;0.25;86.57;98892.19;4186898;28;20240;-73
2022/01/31 04:35:47;;;;;;;17.77;2.77;;;;;;;0.22;86.53;98891.59;4174578;28;20238;-70
2022/01/31 04:38:14;;;;;;;20.63;2.90;;;;;;;0.17;86.83;98882.31;4173753;28;20233;-69
2022/01/31 04:40:41;;;;;;;16.83;2.93;;;;;;;0.20;87.04;98899.53;4182059;28;20234;-70
2022/01/31 04:43:07;;;;;;;13.57;2.20;;;;;;;0.16;87.36;98887.66;4181218;28;20304;-72
2022/01/31 04:45:34;;;;;;;16.67;3.07;;;;;;;0.07;87.73;98901.41;4163359;28;20902;-73
2022/01/31 04:48:01;;;;;;;19.17;2.97;;;;;;;0.07;87.35;98896.19;4186406;28;21306;-71
2022/01/31 04:50:27;;;;;;;15.40;2.90;;;;;;;0.11;87.11;98895.84;4181501;28;22750;-71
2022/01/31 04:52:54;;;;;;;17.30;3.17;;;;;;;0.07;86.89;98899.66;4181237;28;21291;-72
2022/01/31 04:55:21;;;;;;;13.30;2.97;;;;;;;-0.04;87.41;98895.22;4188146;28;20306;-70
2022/01/31 04:57:47;;;;;;;17.73;3.27;;;;;;;-0.02;87.75;98887.28;4179658;28;20229;-70
2022/01/31 05:00:14;;;;;;;14.40;3.13;;;;;;;-0.03;87.71;98891.66;4180915;28;21414;-71
2022/01/31 05:02:40;;;;;;;13.57;3.27;;;;;;;-0.09;87.68;98894.75;4176771;28;20296;-73
2022/01/31 05:05:07;;;;;;;18.17;4.17;;;;;;;-0.02;88.19;98895.13;4189380;28;22490;-69
2022/01/31 05:07:33;;;;;;;24.60;3.80;;;;;;;-0.11;88.10;98890.59;4175847;28;21093;-70
2022/01/31 05:10:00;;;;;;;18.90;3.40;;;;;;;-0.11;88.46;98886.19;4169471;28;20230;-70
2022/01/31 05:12:27;;;;;;;20.17;3.40;;;;;;;-0.13;88.10;98882.84;4178559;28;20272;-73
2022/01/31 05:14:53;;;;;;;22.93;4.37;;;;;;;-0.21;88.50;98887.84;4171554;28;20234;-71
2022/01/31 05:17:20;;;;;;;19.33;3.57;;;;;;;-0.18;88.67;98892.81;4174511;28;20267;-70
2022/01/31 05:19:46;;;;;;;19.53;3.77;;;;;;;-0.23;88.86;98894.97;4186857;28;20237;-73
2022/01/31 05:22:13;;;;;;;16.33;3.73;;;;;;;-0.15;89.01;98891.75;4173304;28;20242;-72
2022/01/31 05:24:40;;;;;;;22.80;4.97;;;;;;;-0.18;89.13;98884.97;4187065;28;20361;-72
2022/01/31 05:27:06;;;;;;;20.83;3.97;;;;;;;-0.20;89.14;98886.03;4184764;28;20875;-72
2022/01/31 05:29:33;;;;;;;23.20;4.20;;;;;;;-0.21;89.05;98882.59;4180753;28;21499;-69
2022/01/31 05:31:59;;;;;;;18.53;4.80;;;;;;;-0.26;89.45;98882.09;4181494;28;20510;-71
2022/01/31 05:34:26;;;;;;;24.47;4.70;;;;;;;-0.34;89.67;98882.69;4183934;28;21216;-73
2022/01/31 05:36:55;;;;;;;23.40;4.77;;;;;;;-0.30;89.51;98875.44;4185890;28;20244;-70
2022/01/31 05:39:24;;;;;;;22.93;5.10;;;;;;;-0.25;89.49;98868.91;4176164;28;20326;-71
2022/01/31 05:41:51;;;;;;;22.77;4.13;;;;;;;-0.39;90.28;98870.91;4182685;28;20400;-71
2022/01/31 05:44:20;;;;;;;20.87;4.77;;;;;;;-0.40;90.30;98864.81;4184834;28;20237;-71
2022/01/31 05:46:47;;;;;;;18.90;4.17;;;;;;;-0.46;90.76;98866.13;4179887;28;20241;-70
2022/01/31 05:49:14;;;;;;;22.63;3.90;;;;;;;-0.41;90.36;98864.97;4185311;28;25840;-70
2022/01/31 05:52:04;;;;;;;18.73;4.73;;;;;;;-0.50;91.00;98861.25;4183793;28;21837;-71
2022/01/31 05:54:32;;;;;;;22.17;4.60;;;;;;;-0.46;90.73;98863.50;4171606;28;20717;-70
2022/01/31 05:57:00;;;;;;;18.90;4.07;;;;;;;-0.54;90.99;98860.66;4197084;28;20242;-72
2022/01/31 05:59:26;;;;;;;21.97;4.40;;;;;;;-0.57;91.63;98863.47;4181909;28;20327;-72
2022/01/31 06:01:53;;;;;;;16.90;4.90;;;;;;;-0.56;91.50;98854.72;4191293;28;20366;-71
2022/01/31 06:04:20;;;;;;;19.03;4.73;;;;;;;-0.56;91.46;98856.47;4176745;28;20332;-73
2022/01/31 06:06:47;;;;;;;27.00;4.97;;;;;;;-0.56;91.59;98854.72;4175701;28;20481;-70
2022/01/31 06:09:17;;;;;;;25.20;5.17;;;;;;;-0.62;92.04;98862.97;4180978;28;20468;-73
2022/01/31 06:11:47;;;;;;;25.73;5.30;;;;;;;-0.53;91.25;98864.91;4170661;28;21630;-70
2022/01/31 06:14:13;;;;;;;21.27;4.87;;;;;;;-0.60;91.69;98866.31;4193072;28;21579;-75
2022/01/31 06:16:40;;;;;;;26.33;5.00;;;;;;;-0.61;92.26;98866.41;4193742;28;20238;-75
2022/01/31 06:19:06;;;;;;;27.20;4.93;;;;;;;-0.59;92.08;98867.16;4191308;28;20256;-74
2022/01/31 06:21:33;;;;;;;23.03;4.63;;;;;;;-0.54;91.96;98867.63;4187782;28;21326;-72
2022/01/31 06:23:59;;;;;;;25.73;5.30;;;;;;;-0.55;91.70;98860.75;4200172;28;23538;-73
2022/01/31 06:26:28;;;;;;;26.03;5.07;;;;;;;-0.60;91.76;98866.31;4178154;28;20322;-70
2022/01/31 06:28:55;;;;;;;26.43;4.40;;;;;;;-0.60;91.11;98858.47;4176771;28;20303;-71
2022/01/31 06:31:21;;;;;;;22.53;4.47;;;;;;;-0.65;90.75;98858.00;4193568;28;20304;-69
2022/01/31 06:33:48;;;;;;;18.10;4.93;;;;;;;-0.65;91.14;98860.59;4196594;28;23563;-68
2022/01/31 06:36:14;;;;;;;16.87;4.70;;;;;;;-0.60;90.43;98858.47;4188420;28;20232;-71
2022/01/31 06:38:41;;;;;;;23.10;4.20;;;;;;;-0.61;89.92;98872.47;4180622;28;20226;-68
2022/01/31 06:41:08;;;;;;;19.47;4.53;;;;;;;-0.60;89.96;98862.88;4197624;28;20233;-69
2022/01/31 06:43:34;;;;;;;21.23;4.87;;;;;;;-0.59;90.11;98859.31;4184469;28;20246;-70
2022/01/31 06:46:01;;;;;;;19.13;5.80;;;;;;;-0.62;90.22;98851.72;4188569;28;20382;-70
2022/01/31 06:48:27;;;;;;;22.90;6.00;;;;;;;-0.60;90.50;98841.97;4194380;28;23199;-71
2022/01/31 06:50:54;;;;;;;24.23;5.70;;;;;;;-0.70;90.51;98852.28;4184688;28;21332;-68
2022/01/31 06:53:26;;;;;;;22.70;5.47;;;;;;;-0.80;91.24;98840.81;4185592;28;22342;-69
2022/01/31 06:55:53;;;;;;;26.00;5.83;;;;;;;-0.73;91.16;98842.88;4179388;28;20365;-69
2022/01/31 06:58:20;;;;;;;27.97;5.30;;;;;;;-0.62;90.77;98829.03;4186587;28;20743;-71
2022/01/31 07:00:47;;;;;;;22.60;5.90;;;;;;;-0.62;90.45;98839.47;4183510;28;20456;-68
2022/01/31 07:03:14;;;;;;;21.23;5.17;;;;;;;-0.65;90.55;98839.72;4179487;28;20928;-73
2022/01/31 07:05:42;;;;;;;25.77;5.67;;;;;;;-0.51;90.63;98836.06;4178640;28;20287;-68
2022/01/31 07:08:10;;;;;;;23.77;4.93;;;;;;;-0.44;90.00;98845.13;4209080;28;20407;-71
2022/01/31 07:10:38;;;;;;;16.10;4.70;;;;;;;-0.39;89.93;98850.00;4176151;28;20229;-66
2022/01/31 07:13:23;;;;;;;28.40;5.33;;;;;;;-0.44;90.13;98848.56;4230849;28;22065;-68
2022/01/31 07:15:50;;;;;;;22.43;5.07;;;;;;;-0.47;90.22;98838.34;4176467;28;20479;-72
2022/01/31 07:18:17;;;;;;;22.37;4.97;;;;;;;-0.48;90.21;98836.66;4190673;28;20240;-68
2022/01/31 07:20:50;;;;;;;24.43;5.00;;;;;;;-0.54;90.70;98831.91;4181386;28;20256;-71
2022/01/31 07:23:23;;;;;;;27.07;5.30;;;;;;;-0.43;89.87;98831.91;4190390;28;20248;-71
2022/01/31 07:25:50;;;;;;;22.33;4.70;;;;;;;-0.49;90.37;98835.00;4188777;28;20239;-69
2022/01/31 07:28:17;;;;;;;25.07;5.27;;;;;;;-0.47;90.67;98842.72;4183419;28;20239;-71
2022/01/31 07:30:46;;;;;;;26.43;5.43;;;;;;;-0.51;90.89;98831.69;4204666;28;20237;-70
2022/01/31 07:33:13;;;;;;;19.37;5.20;;;;;;;-0.45;90.83;98838.22;4229811;28;20668;-67
2022/01/31 07:35:41;;;;;;;27.23;5.40;;;;;;;-0.45;90.58;98831.19;4211138;28;20235;-69
2022/01/31 07:38:08;;;;;;;21.73;5.67;;;;;;;-0.60;91.58;98831.53;4195238;28;20241;-69
2022/01/31 07:40:35;;;;;;;24.90;5.27;;;;;;;-0.52;91.57;98837.00;4183369;28;23486;-68
2022/01/31 07:43:03;;;;;;;24.83;4.60;;;;;;;-0.54;90.79;98825.84;4181679;28;20315;-70
2022/01/31 07:45:29;;;;;;;24.53;4.47;;;;;;;-0.51;90.40;98825.63;4209062;28;20264;-67
2022/01/31 07:47:56;;;;;;;17.87;4.23;;;;;;;-0.55;90.76;98825.00;4201711;28;20742;-70
2022/01/31 07:50:23;;;;;;;15.83;4.40;;;;;;;-0.54;90.42;98829.31;4182701;28;21279;-68
2022/01/31 07:52:49;;;;;;;20.60;5.30;;;;;;;-0.58;90.56;98825.25;4179423;28;20291;-70
2022/01/31 07:55:17;;;;;;;24.33;5.80;;;;;;;-0.50;90.88;98815.03;4198959;28;20225;-67
2022/01/31 07:57:46;;;;;;;21.30;5.10;;;;;;;-0.51;90.03;98817.78;4210016;28;20413;-70
2022/01/31 08:00:14;;;;;;;25.20;5.50;;;;;;;-0.42;89.84;98814.50;4183949;28;20888;-70
2022/01/31 08:02:42;;;;;;;20.17;4.73;;;;;;;-0.45;89.72;98823.34;4179537;28;20227;-70
2022/01/31 08:05:09;;;;;;;20.67;4.97;;;;;;;-0.41;88.93;98820.53;4173240;28;20312;-70
2022/01/31 08:07:36;;;;;;;18.00;5.50;;;;;;;-0.34;89.37;98816.50;4201303;28;22749;-69
2022/01/31 08:10:04;;;;;;;21.37;5.20;;;;;;;-0.30;88.92;98817.94;4188446;28;20244;-71
2022/01/31 08:12:33;;;;;;;18.33;4.67;;;;;;;-0.38;88.61;98815.06;4180708;28;20682;-70
2022/01/31 08:15:04;;;;;;;22.47;5.57;;;;;;;-0.27;88.12;98822.94;4181625;28;23002;-71
2022/01/31 08:17:31;;;;;;;28.40;5.67;;;;;;;-0.25;87.64;98813.22;4190558;28;21908;-68
2022/01/31 08:19:57;;;;;;;20.43;4.70;;;;;;;-0.27;87.87;98815.09;4190127;28;20591;-70
2022/01/31 08:22:24;;;;;;;21.00;4.87;;;;;;;-0.17;87.82;98823.91;4204435;28;26515;-69
2022/01/31 08:24:51;;;;;;;22.17;4.40;;;;;;;-0.15;87.19;98823.78;4188291;28;22085;-68
2022/01/31 08:27:17;;;;;;;22.17;4.70;;;;;;;-0.16;86.67;98809.88;4203210;28;20239;-72
2022/01/31 08:29:44;;;;;;;23.77;4.47;;;;;;;-0.09;86.18;98811.09;4226521;28;20241;-71
2022/01/31 08:32:18;;;;;;;16.47;3.43;;;;;;;-0.08;86.50;98811.91;4209593;28;20235;-72
2022/01/31 08:37:35;;;;;;;19.47;3.50;;;;;;;-0.02;86.38;98801.00;4183312;28;20432;-71
2022/01/31 08:40:03;;;;;;;22.93;4.10;;;;;;;0.11;85.15;98801.69;4200802;28;20721;-72
2022/01/31 08:42:30;;;;;;;24.23;4.20;;;;;;;0.03;84.46;98798.84;4186108;28;20234;-70
2022/01/31 08:44:57;;;;;;;18.50;4.20;;;;;;;-0.01;85.08;98795.63;4201238;28;20239;-71
2022/01/31 08:47:23;;;;;;;14.07;3.57;;;;;;;0.10;85.06;98801.81;4172729;28;21950;-70
2022/01/31 08:49:50;;;;;;;21.93;4.53;;;;;;;0.14;84.67;98806.69;4186233;28;20234;-73
2022/01/31 08:52:17;;;;;;;24.80;3.80;;;;;;;0.18;84.05;98802.06;4176349;28;20234;-75
2022/01/31 08:54:43;;;;;;;17.87;4.20;;;;;;;0.27;84.11;98805.75;4193738;28;26487;-72
2022/01/31 08:57:10;;;;;;;21.40;4.23;;;;;;;0.30;83.79;98797.63;4183790;28;20578;-75
2022/01/31 08:59:43;;;;;;;20.53;4.63;;;;;;;0.25;84.57;98798.00;4226858;28;20407;-70
2022/01/31 09:02:13;;;;;;;25.80;3.87;;;;;;;0.20;83.80;98793.13;4188145;28;20228;-71
2022/01/31 09:04:47;;;;;;;14.97;4.10;;;;;;;0.19;84.01;98790.66;4180723;28;21308;-70
2022/01/31 09:07:20;;;;;;;20.23;4.60;;;;;;;0.16;83.91;98791.72;4209468;28;22060;-72
2022/01/31 09:09:50;;;;;;;25.97;4.67;;;;;;;0.19;84.13;98788.88;4232053;28;20268;-72
2022/01/31 09:12:17;;;;;;;17.90;4.60;;;;;;;0.07;84.37;98788.97;4174734;28;20238;-70
2022/01/31 09:14:45;;;;;;;17.80;3.73;;;;;;;0.14;83.04;98791.00;4174780;28;22814;-72
2022/01/31 09:17:12;;;;;;;17.17;4.40;;;;;;;0.25;82.60;98787.53;4196334;28;20398;-73
2022/01/31 09:19:38;;;;;;;13.07;3.50;;;;;;;0.25;82.42;98787.53;4207284;28;21273;-72
2022/01/31 09:22:05;;;;;;;22.77;4.37;;;;;;;0.30;81.94;98792.41;4182699;28;20233;-70
2022/01/31 09:24:37;;;;;;;16.47;3.93;;;;;;;0.31;81.84;98787.06;4193766;28;22015;-73
2022/01/31 09:27:05;;;;;;;18.37;3.97;;;;;;;0.43;81.91;98779.22;4215538;28;20238;-70
2022/01/31 09:29:33;;;;;;;16.87;4.10;;;;;;;0.43;79.73;98779.22;4202193;28;20252;-70
2022/01/31 09:32:02;;;;;;;16.13;3.80;;;;;;;0.65;79.92;98767.84;4202603;28;21618;-71
2022/01/31 09:34:30;;;;;;;13.07;3.97;;;;;;;0.78;78.15;98774.59;4216053;28;21028;-73
2022/01/31 09:36:58;;;;;;;16.40;4.10;;;;;;;0.89;77.23;98765.03;4219921;28;22520;-69
2022/01/31 09:39:24;;;;;;;18.47;4.30;;;;;;;0.89;77.69;98765.03;4182107;28;20233;-70
2022/01/31 09:41:55;;;;;;;18.00;3.50;;;;;;;0.98;78.16;98759.03;4232433;28;20231;-72
2022/01/31 09:47:24;;;;;;;16.00;4.43;;;;;;;1.55;74.61;98756.97;4219423;28;20290;-69
2022/01/31 09:49:51;;;;;;;22.97;4.73;;;;;;;1.52;73.57;98744.94;4204651;28;22085;-68
2022/01/31 09:52:19;;;;;;;15.10;4.17;;;;;;;1.79;72.79;98748.81;4201373;28;20272;-71
2022/01/31 09:54:48;;;;;;;17.83;3.90;;;;;;;1.91;70.52;98739.88;4254668;28;20225;-69
2022/01/31 09:57:16;;;;;;;9.67;2.33;;;;;;;1.96;68.01;98739.50;4214949;28;20360;-72
2022/01/31 09:59:43;;;;;;;14.53;3.93;;;;;;;2.05;68.74;98734.28;4223029;28;20285;-68
2022/01/31 10:02:11;;;;;;;12.73;3.43;;;;;;;2.07;68.69;98736.78;4192968;28;20256;-68
2022/01/31 10:04:44;;;;;;;9.57;3.03;;;;;;;1.56;67.35;98733.22;4203075;28;20689;-68
2022/01/31 10:07:13;;;;;;;13.33;3.23;;;;;;;1.55;69.56;98734.22;4188829;28;20649;-68
2022/01/31 10:09:43;;;;;;;11.93;2.83;;;;;;;1.83;67.71;98729.25;4212910;28;20245;-65
2022/01/31 10:17:58;;;;;;;12.10;3.30;;;;;;;1.47;68.73;98729.63;4228593;28;21856;-68
2022/01/31 10:20:29;;;;;;;13.80;2.83;;;;;;;1.64;67.54;98722.94;4201169;28;20236;-70
2022/01/31 10:23:05;;;;;;;14.50;2.97;;;;;;;1.96;67.21;98719.34;4191252;28;20399;-67
2022/01/31 10:25:33;;;;;;;13.77;3.73;;;;;;;1.92;67.16;98730.22;4192221;28;20342;-70
2022/01/31 10:28:15;;;;;;;11.00;3.00;;;;;;;2.16;67.85;98735.97;4203219;28;20308;-66
2022/01/31 10:30:44;;;;;;;14.73;2.80;;;;;;;2.51;66.68;98734.69;4221215;28;20238;-67
2022/01/31 10:33:12;;;;;;;13.37;2.60;;;;;;;2.58;63.45;98724.47;4189337;28;21088;-67
2022/01/31 10:35:40;;;;;;;13.00;3.27;;;;;;;2.65;64.22;98715.09;4168427;28;20507;-69
2022/01/31 10:38:11;;;;;;;15.00;3.57;;;;;;;2.31;66.34;98704.94;4204852;28;22721;-70
2022/01/31 10:44:23;;;;;;;13.83;3.50;;;;;;;1.80;67.10;98708.50;4247274;28;20878;-70
2022/01/31 10:52:01;;;;;;;14.53;3.80;;;;;;;1.74;63.93;98706.44;4194454;28;20762;-67
2022/01/31 10:57:01;;;;;;;13.57;3.80;;;;;;;1.44;64.13;98697.59;4210151;28;20241;-69
2022/01/31 10:59:40;;;;;;;12.93;3.30;;;;;;;1.24;64.25;98694.88;4256363;28;20275;-68
2022/01/31 11:02:15;;;;;;;25.20;3.70;;;;;;;1.29;64.16;98689.22;4220768;28;20552;-69
2022/01/31 11:04:43;;;;;;;11.57;2.57;;;;;;;1.69;62.44;98688.47;4246383;28;21682;-68
2022/01/31 11:07:13;;;;;;;11.50;3.10;;;;;;;1.96;62.60;98687.03;4219859;28;20724;-70
2022/01/31 11:09:43;;;;;;;11.80;3.20;;;;;;;1.99;62.62;98692.84;4252911;28;20254;-68
2022/01/31 11:12:10;;;;;;;11.00;2.80;;;;;;;1.98;61.31;98690.34;4231551;28;20366;-68
2022/01/31 11:14:43;;;;;;;15.33;2.83;;;;;;;1.88;60.60;98678.03;4240581;28;21892;-67
2022/01/31 11:17:14;;;;;;;15.43;3.80;;;;;;;1.63;62.09;98681.13;4222136;28;20310;-72
2022/01/31 11:19:43;;;;;;;14.40;3.40;;;;;;;1.36;61.97;98690.38;4228303;28;20307;-70
2022/01/31 11:22:12;;;;;;;12.73;2.30;;;;;;;1.35;62.54;98693.13;4229439;28;20260;-68
2022/01/31 11:25:03;;;;;;;19.93;2.70;;;;;;;1.56;62.19;98691.28;4217511;28;20309;-69
2022/01/31 11:27:31;;;;;;;8.80;2.67;;;;;;;1.54;62.70;98687.97;4209650;28;21544;-71
2022/01/31 11:29:58;;;;;;;16.53;2.80;;;;;;;1.48;62.07;98694.56;4190265;28;20330;-68
2022/01/31 11:32:26;;;;;;;10.23;2.83;;;;;;;1.41;61.95;98688.19;4206496;28;20800;-69
2022/01/31 11:34:54;;;;;;;14.17;2.60;;;;;;;1.41;62.45;98703.09;4243083;28;20254;-70
2022/01/31 11:37:22;;;;;;;13.77;2.93;;;;;;;1.36;61.48;98689.53;4219472;28;20370;-69
2022/01/31 11:39:54;;;;;;;12.93;2.50;;;;;;;1.41;63.29;98696.06;4219445;28;20357;-68
2022/01/31 11:42:20;;;;;;;12.97;2.37;;;;;;;1.40;61.80;98699.63;4192648;28;22591;-70
2022/01/31 11:44:55;;;;;;;9.93;2.37;;;;;;;1.47;61.56;98698.16;4208684;28;21844;-70
2022/01/31 11:47:23;;;;;;;8.67;2.03;;;;;;;1.54;61.08;98711.56;4222734;28;20228;-72
2022/01/31 11:49:53;;;;;;;13.13;2.07;;;;;;;1.43;61.01;98714.28;4187544;28;20242;-68
2022/01/31 11:52:20;;;;;;;7.60;1.93;;;;;;;1.28;61.42;98703.28;4189519;28;21331;-71
2022/01/31 11:54:53;;;;;;;7.37;2.10;;;;;;;1.19;61.27;98699.63;4175818;28;21246;-69
2022/01/31 11:57:22;;;;;;;8.83;2.20;;;;;;;1.11;61.84;98696.84;4182402;28;20231;-69
2022/01/31 12:00:13;;;;;;;8.37;2.03;;;;;;;0.98;62.52;98691.81;4199227;28;20234;-78
2022/01/31 12:02:41;;;;;;;14.27;2.37;;;;;;;0.77;63.05;98694.41;4203961;28;20238;-72
2022/01/31 12:05:12;;;;;;;16.80;2.77;;;;;;;0.60;63.72;98697.53;4203273;28;20344;-72
2022/01/31 12:07:43;;;;;;;10.57;1.90;;;;;;;0.59;64.70;98690.66;4200398;28;20838;-69
2022/01/31 12:10:28;;;;;;;17.03;2.30;;;;;;;0.72;64.77;98688.69;4204991;28;20368;-69
2022/01/31 12:13:00;;;;;;;14.90;2.47;;;;;;;1.01;65.05;98693.34;4228922;28;20570;-70